sensor_id;sensor_type;location;lat;lon;timestamp;pressure;altitude;pressure_sealevel;temperature;humidity
38718;BME280;24468;52.128;9.278;2023-05-22T00:02:03;100558.25;;;19.36;100.00
38718;BME280;24468;52.128;9.278;2023-05-22T00:04:29;100555.41;;;19.37;100.00
38718;BME280;24468;52.128;9.278;2023-05-22T00:06:55;100549.31;;;19.45;100.00
38718;BME280;24468;52.128;9.278;2023-05-22T00:09:24;100546.94;;;19.40;100.00
38718;BME280;24468;52.128;9.278;2023-05-22T00:11:50;100540.13;;;19.35;100.00
38718;BME280;24468;52.128;9.278;2023-05-22T00:14:16;100543.09;;;19.43;100.00
38718;BME280;24468;52.128;9.278;2023-05-22T00:16:42;100542.97;;;19.55;100.00
38718;BME280;24468;52.128;9.278;2023-05-22T00:19:09;100548.06;;;19.60;100.00
38718;BME280;24468;52.128;9.278;2023-05-22T00:21:38;100546.94;;;19.63;100.00
38718;BME280;24468;52.128;9.278;2023-05-22T00:24:04;100548.66;;;19.52;100.00
38718;BME280;24468;52.128;9.278;2023-05-22T00:26:30;100553.53;;;19.60;100.00
38718;BME280;24468;52.128;9.278;2023-05-22T00:28:56;100549.66;;;19.63;100.00
38718;BME280;24468;52.128;9.278;2023-05-22T00:31:22;100549.44;;;19.66;100.00
38718;BME280;24468;52.128;9.278;2023-05-22T00:33:47;100545.19;;;19.62;100.00
38718;BME280;24468;52.128;9.278;2023-05-22T00:36:13;100545.31;;;19.60;100.00
38718;BME280;24468;52.128;9.278;2023-05-22T00:38:39;100544.09;;;19.64;100.00
38718;BME280;24468;52.128;9.278;2023-05-22T00:41:05;100540.97;;;19.58;100.00
38718;BME280;24468;52.128;9.278;2023-05-22T00:43:32;100536.50;;;19.68;100.00
38718;BME280;24468;52.128;9.278;2023-05-22T00:45:58;100543.22;;;19.75;100.00
38718;BME280;24468;52.128;9.278;2023-05-22T00:48:24;100539.75;;;19.50;100.00
38718;BME280;24468;52.128;9.278;2023-05-22T00:50:51;100528.56;;;19.42;100.00
38718;BME280;24468;52.128;9.278;2023-05-22T00:53:24;100538.22;;;19.58;100.00
38718;BME280;24468;52.128;9.278;2023-05-22T00:55:50;100535.63;;;19.56;100.00
38718;BME280;24468;52.128;9.278;2023-05-22T00:58:17;100531.88;;;19.57;100.00
38718;BME280;24468;52.128;9.278;2023-05-22T01:00:43;100529.53;;;19.64;100.00
38718;BME280;24468;52.128;9.278;2023-05-22T01:03:09;100524.28;;;19.61;100.00
38718;BME280;24468;52.128;9.278;2023-05-22T01:05:36;100525.28;;;19.60;100.00
38718;BME280;24468;52.128;9.278;2023-05-22T01:08:03;100534.00;;;19.53;100.00
38718;BME280;24468;52.128;9.278;2023-05-22T01:10:29;100525.03;;;19.63;100.00
38718;BME280;24468;52.128;9.278;2023-05-22T01:27:38;100538.75;;;19.29;100.00
38718;BME280;24468;52.128;9.278;2023-05-22T01:30:46;100539.88;;;19.15;100.00
38718;BME280;24468;52.128;9.278;2023-05-22T01:33:14;100542.19;;;18.62;100.00
38718;BME280;24468;52.128;9.278;2023-05-22T01:35:47;100536.84;;;18.84;100.00
38718;BME280;24468;52.128;9.278;2023-05-22T01:38:16;100536.72;;;18.86;100.00
38718;BME280;24468;52.128;9.278;2023-05-22T01:40:43;100540.56;;;18.83;100.00
38718;BME280;24468;52.128;9.278;2023-05-22T01:43:10;100533.03;;;18.98;100.00
38718;BME280;24468;52.128;9.278;2023-05-22T01:45:37;100537.38;;;19.01;100.00
38718;BME280;24468;52.128;9.278;2023-05-22T01:48:02;100542.56;;;18.81;100.00
38718;BME280;24468;52.128;9.278;2023-05-22T01:50:28;100539.44;;;18.86;100.00
38718;BME280;24468;52.128;9.278;2023-05-22T01:53:29;100538.94;;;18.92;100.00
38718;BME280;24468;52.128;9.278;2023-05-22T01:56:14;100540.72;;;18.93;100.00
38718;BME280;24468;52.128;9.278;2023-05-22T01:58:56;100539.06;;;18.79;100.00
38718;BME280;24468;52.128;9.278;2023-05-22T02:01:27;100536.97;;;18.83;100.00
38718;BME280;24468;52.128;9.278;2023-05-22T02:03:56;100535.75;;;18.87;100.00
38718;BME280;24468;52.128;9.278;2023-05-22T02:06:24;100529.50;;;18.85;100.00
38718;BME280;24468;52.128;9.278;2023-05-22T02:08:53;100535.34;;;18.80;100.00
38718;BME280;24468;52.128;9.278;2023-05-22T02:11:20;100536.59;;;18.76;100.00
38718;BME280;24468;52.128;9.278;2023-05-22T02:13:49;100531.44;;;18.72;100.00
38718;BME280;24468;52.128;9.278;2023-05-22T02:16:14;100532.78;;;18.66;100.00
38718;BME280;24468;52.128;9.278;2023-05-22T02:18:40;100533.41;;;18.70;100.00
38718;BME280;24468;52.128;9.278;2023-05-22T02:21:07;100525.22;;;18.70;100.00
38718;BME280;24468;52.128;9.278;2023-05-22T02:23:33;100521.91;;;18.77;100.00
38718;BME280;24468;52.128;9.278;2023-05-22T02:25:59;100526.28;;;18.80;100.00
38718;BME280;24468;52.128;9.278;2023-05-22T02:28:25;100525.34;;;18.68;100.00
38718;BME280;24468;52.128;9.278;2023-05-22T02:30:51;100521.00;;;18.65;100.00
38718;BME280;24468;52.128;9.278;2023-05-22T02:33:16;100519.41;;;18.39;100.00
38718;BME280;24468;52.128;9.278;2023-05-22T02:35:46;100514.56;;;18.42;100.00
38718;BME280;24468;52.128;9.278;2023-05-22T02:38:11;100509.88;;;18.44;100.00
38718;BME280;24468;52.128;9.278;2023-05-22T02:40:37;100509.13;;;18.42;100.00
38718;BME280;24468;52.128;9.278;2023-05-22T02:43:02;100510.97;;;18.42;100.00
38718;BME280;24468;52.128;9.278;2023-05-22T02:45:28;100509.84;;;18.33;100.00
38718;BME280;24468;52.128;9.278;2023-05-22T02:47:54;100507.41;;;18.17;100.00
38718;BME280;24468;52.128;9.278;2023-05-22T02:50:20;100512.34;;;18.12;100.00
38718;BME280;24468;52.128;9.278;2023-05-22T02:52:45;100506.31;;;17.96;100.00
38718;BME280;24468;52.128;9.278;2023-05-22T02:55:11;100509.13;;;17.70;100.00
38718;BME280;24468;52.128;9.278;2023-05-22T02:57:36;100509.69;;;17.26;100.00
38718;BME280;24468;52.128;9.278;2023-05-22T03:00:03;100512.28;;;17.27;100.00
38718;BME280;24468;52.128;9.278;2023-05-22T03:02:32;100503.94;;;17.05;100.00
38718;BME280;24468;52.128;9.278;2023-05-22T03:04:57;100506.50;;;17.32;100.00
38718;BME280;24468;52.128;9.278;2023-05-22T03:07:24;100507.13;;;17.48;100.00
38718;BME280;24468;52.128;9.278;2023-05-22T03:09:51;100508.47;;;17.30;100.00
38718;BME280;24468;52.128;9.278;2023-05-22T03:12:17;100501.47;;;17.39;100.00
38718;BME280;24468;52.128;9.278;2023-05-22T03:14:43;100504.25;;;17.26;100.00
38718;BME280;24468;52.128;9.278;2023-05-22T03:17:09;100505.00;;;17.15;100.00
38718;BME280;24468;52.128;9.278;2023-05-22T03:19:34;100506.75;;;17.29;100.00
38718;BME280;24468;52.128;9.278;2023-05-22T03:22:00;100503.78;;;17.32;100.00
38718;BME280;24468;52.128;9.278;2023-05-22T03:24:25;100508.69;;;17.27;100.00
38718;BME280;24468;52.128;9.278;2023-05-22T03:26:51;100505.31;;;17.23;100.00
38718;BME280;24468;52.128;9.278;2023-05-22T03:29:17;100512.09;;;17.18;100.00
38718;BME280;24468;52.128;9.278;2023-05-22T03:31:42;100504.56;;;17.21;100.00
38718;BME280;24468;52.128;9.278;2023-05-22T03:34:08;100509.47;;;17.16;100.00
38718;BME280;24468;52.128;9.278;2023-05-22T03:36:33;100508.28;;;17.07;100.00
38718;BME280;24468;52.128;9.278;2023-05-22T03:39:03;100512.31;;;17.15;100.00
38718;BME280;24468;52.128;9.278;2023-05-22T03:41:29;100521.81;;;17.09;100.00
38718;BME280;24468;52.128;9.278;2023-05-22T03:43:55;100511.22;;;17.17;100.00
38718;BME280;24468;52.128;9.278;2023-05-22T03:46:21;100509.06;;;17.22;100.00
38718;BME280;24468;52.128;9.278;2023-05-22T03:48:47;100508.06;;;17.23;100.00
38718;BME280;24468;52.128;9.278;2023-05-22T03:51:12;100516.31;;;17.34;100.00
38718;BME280;24468;52.128;9.278;2023-05-22T03:53:38;100506.06;;;17.38;100.00
38718;BME280;24468;52.128;9.278;2023-05-22T03:56:03;100507.81;;;17.39;100.00
38718;BME280;24468;52.128;9.278;2023-05-22T03:58:29;100511.94;;;17.45;100.00
38718;BME280;24468;52.128;9.278;2023-05-22T04:00:55;100503.19;;;17.52;100.00
38718;BME280;24468;52.128;9.278;2023-05-22T04:03:26;100503.41;;;17.49;100.00
38718;BME280;24468;52.128;9.278;2023-05-22T04:05:52;100510.63;;;17.50;100.00
38718;BME280;24468;52.128;9.278;2023-05-22T04:08:17;100506.56;;;17.56;100.00
38718;BME280;24468;52.128;9.278;2023-05-22T04:10:43;100506.91;;;17.39;100.00
38718;BME280;24468;52.128;9.278;2023-05-22T04:13:16;100512.81;;;17.45;100.00
38718;BME280;24468;52.128;9.278;2023-05-22T04:15:42;100508.13;;;17.47;100.00
38718;BME280;24468;52.128;9.278;2023-05-22T04:18:10;100512.34;;;17.51;100.00
38718;BME280;24468;52.128;9.278;2023-05-22T04:20:36;100508.13;;;17.47;100.00
38718;BME280;24468;52.128;9.278;2023-05-22T04:23:02;100509.63;;;17.51;100.00
38718;BME280;24468;52.128;9.278;2023-05-22T04:25:27;100507.72;;;17.65;100.00
38718;BME280;24468;52.128;9.278;2023-05-22T04:27:54;100510.41;;;17.41;100.00
38718;BME280;24468;52.128;9.278;2023-05-22T04:30:20;100515.88;;;17.41;100.00
38718;BME280;24468;52.128;9.278;2023-05-22T04:32:46;100513.34;;;17.50;100.00
38718;BME280;24468;52.128;9.278;2023-05-22T04:35:11;100506.63;;;17.67;100.00
38718;BME280;24468;52.128;9.278;2023-05-22T04:37:38;100500.72;;;17.73;100.00
38718;BME280;24468;52.128;9.278;2023-05-22T04:40:09;100501.34;;;17.77;100.00
38718;BME280;24468;52.128;9.278;2023-05-22T04:42:37;100506.50;;;17.82;100.00
38718;BME280;24468;52.128;9.278;2023-05-22T04:45:04;100510.16;;;17.93;100.00
38718;BME280;24468;52.128;9.278;2023-05-22T04:47:30;100507.84;;;18.00;100.00
38718;BME280;24468;52.128;9.278;2023-05-22T04:49:59;100507.59;;;18.03;100.00
38718;BME280;24468;52.128;9.278;2023-05-22T04:52:26;100506.59;;;18.04;100.00
38718;BME280;24468;52.128;9.278;2023-05-22T04:54:52;100505.06;;;18.13;100.00
38718;BME280;24468;52.128;9.278;2023-05-22T04:57:18;100505.44;;;17.95;100.00
38718;BME280;24468;52.128;9.278;2023-05-22T04:59:45;100511.25;;;18.15;100.00
38718;BME280;24468;52.128;9.278;2023-05-22T05:02:12;100504.47;;;18.32;100.00
38718;BME280;24468;52.128;9.278;2023-05-22T05:04:38;100499.94;;;18.43;100.00
38718;BME280;24468;52.128;9.278;2023-05-22T05:07:04;100502.94;;;18.52;100.00
38718;BME280;24468;52.128;9.278;2023-05-22T05:09:30;100499.22;;;18.53;100.00
38718;BME280;24468;52.128;9.278;2023-05-22T05:11:56;100499.22;;;18.53;100.00
38718;BME280;24468;52.128;9.278;2023-05-22T05:14:23;100492.16;;;18.61;100.00
38718;BME280;24468;52.128;9.278;2023-05-22T05:16:48;100488.53;;;18.50;100.00
38718;BME280;24468;52.128;9.278;2023-05-22T05:19:17;100488.25;;;18.77;100.00
38718;BME280;24468;52.128;9.278;2023-05-22T05:21:46;100496.81;;;18.83;100.00
38718;BME280;24468;52.128;9.278;2023-05-22T05:24:11;100477.22;;;19.12;100.00
38718;BME280;24468;52.128;9.278;2023-05-22T05:26:37;100481.06;;;19.32;100.00
38718;BME280;24468;52.128;9.278;2023-05-22T05:29:02;100482.78;;;19.22;100.00
38718;BME280;24468;52.128;9.278;2023-05-22T05:31:28;100478.69;;;19.16;100.00
38718;BME280;24468;52.128;9.278;2023-05-22T05:33:54;100484.53;;;19.45;100.00
38718;BME280;24468;52.128;9.278;2023-05-22T05:36:23;100485.88;;;19.51;100.00
38718;BME280;24468;52.128;9.278;2023-05-22T05:38:48;100483.25;;;19.49;100.00
38718;BME280;24468;52.128;9.278;2023-05-22T05:41:14;100485.25;;;19.70;100.00
38718;BME280;24468;52.128;9.278;2023-05-22T05:43:39;100487.72;;;19.73;100.00
38718;BME280;24468;52.128;9.278;2023-05-22T05:46:05;100485.25;;;19.70;100.00
38718;BME280;24468;52.128;9.278;2023-05-22T05:48:30;100487.34;;;20.10;100.00
38718;BME280;24468;52.128;9.278;2023-05-22T05:50:56;100487.78;;;20.26;100.00
38718;BME280;24468;52.128;9.278;2023-05-22T05:53:21;100489.25;;;20.51;100.00
38718;BME280;24468;52.128;9.278;2023-05-22T05:55:47;100490.22;;;20.61;100.00
38718;BME280;24468;52.128;9.278;2023-05-22T05:58:13;100495.88;;;20.60;100.00
38718;BME280;24468;52.128;9.278;2023-05-22T06:00:38;100486.91;;;20.58;100.00
38718;BME280;24468;52.128;9.278;2023-05-22T06:03:04;100495.06;;;20.69;100.00
38718;BME280;24468;52.128;9.278;2023-05-22T06:05:29;100495.94;;;21.00;100.00
38718;BME280;24468;52.128;9.278;2023-05-22T06:07:55;100490.06;;;20.84;100.00
38718;BME280;24468;52.128;9.278;2023-05-22T06:10:22;100486.09;;;20.98;100.00
38718;BME280;24468;52.128;9.278;2023-05-22T06:12:48;100487.34;;;20.84;100.00
38718;BME280;24468;52.128;9.278;2023-05-22T06:15:13;100491.53;;;21.09;100.00
38718;BME280;24468;52.128;9.278;2023-05-22T06:17:39;100492.78;;;20.95;100.00
38718;BME280;24468;52.128;9.278;2023-05-22T06:20:06;100492.88;;;20.94;100.00
38718;BME280;24468;52.128;9.278;2023-05-22T06:22:31;100487.81;;;21.20;100.00
38718;BME280;24468;52.128;9.278;2023-05-22T06:24:57;100489.41;;;20.92;100.00
38718;BME280;24468;52.128;9.278;2023-05-22T06:27:23;100492.25;;;21.42;100.00
38718;BME280;24468;52.128;9.278;2023-05-22T06:29:49;100489.41;;;21.22;100.00
38718;BME280;24468;52.128;9.278;2023-05-22T06:32:16;100491.34;;;21.31;100.00
38718;BME280;24468;52.128;9.278;2023-05-22T06:34:45;100495.44;;;21.47;100.00
38718;BME280;24468;52.128;9.278;2023-05-22T06:37:11;100498.91;;;21.39;100.00
38718;BME280;24468;52.128;9.278;2023-05-22T06:39:37;100487.25;;;21.66;100.00
38718;BME280;24468;52.128;9.278;2023-05-22T06:42:03;100494.50;;;21.67;100.00
38718;BME280;24468;52.128;9.278;2023-05-22T06:44:28;100493.47;;;21.59;100.00
38718;BME280;24468;52.128;9.278;2023-05-22T06:46:54;100487.88;;;21.80;100.00
38718;BME280;24468;52.128;9.278;2023-05-22T06:49:19;100484.28;;;21.98;100.00
38718;BME280;24468;52.128;9.278;2023-05-22T06:51:45;100487.75;;;22.10;100.00
38718;BME280;24468;52.128;9.278;2023-05-22T06:54:12;100487.19;;;21.78;100.00
38718;BME280;24468;52.128;9.278;2023-05-22T06:56:41;100482.19;;;22.22;100.00
38718;BME280;24468;52.128;9.278;2023-05-22T06:59:08;100486.03;;;21.90;100.00
38718;BME280;24468;52.128;9.278;2023-05-22T07:01:34;100490.41;;;22.60;100.00
38718;BME280;24468;52.128;9.278;2023-05-22T07:04:01;100491.38;;;22.59;100.00
38718;BME280;24468;52.128;9.278;2023-05-22T07:06:32;100486.00;;;22.77;100.00
38718;BME280;24468;52.128;9.278;2023-05-22T07:09:04;100485.41;;;22.93;100.00
38718;BME280;24468;52.128;9.278;2023-05-22T07:11:30;100488.97;;;23.13;100.00
38718;BME280;24468;52.128;9.278;2023-05-22T07:13:56;100480.28;;;23.45;100.00
38718;BME280;24468;52.128;9.278;2023-05-22T07:16:21;100480.09;;;23.19;100.00
38718;BME280;24468;52.128;9.278;2023-05-22T07:18:47;100478.75;;;23.33;100.00
38718;BME280;24468;52.128;9.278;2023-05-22T07:21:13;100481.47;;;23.43;100.00
38718;BME280;24468;52.128;9.278;2023-05-22T07:23:38;100472.25;;;23.24;100.00
38718;BME280;24468;52.128;9.278;2023-05-22T07:26:06;100476.00;;;23.33;100.00
38718;BME280;24468;52.128;9.278;2023-05-22T07:28:31;100468.09;;;23.20;100.00
38718;BME280;24468;52.128;9.278;2023-05-22T07:30:57;100479.25;;;23.19;100.00
38718;BME280;24468;52.128;9.278;2023-05-22T07:33:23;100471.53;;;23.22;100.00
38718;BME280;24468;52.128;9.278;2023-05-22T07:35:49;100466.66;;;23.44;100.00
38718;BME280;24468;52.128;9.278;2023-05-22T07:38:16;100469.50;;;23.52;100.00
38718;BME280;24468;52.128;9.278;2023-05-22T07:40:42;100463.97;;;23.62;100.00
38718;BME280;24468;52.128;9.278;2023-05-22T07:43:07;100465.59;;;23.55;100.00
38718;BME280;24468;52.128;9.278;2023-05-22T07:45:33;100462.97;;;23.25;100.00
38718;BME280;24468;52.128;9.278;2023-05-22T07:47:58;100462.13;;;23.25;100.00
38718;BME280;24468;52.128;9.278;2023-05-22T07:50:26;100467.09;;;23.39;100.00
38718;BME280;24468;52.128;9.278;2023-05-22T07:52:52;100470.25;;;23.26;100.00
38718;BME280;24468;52.128;9.278;2023-05-22T07:55:17;100471.31;;;23.43;100.00
38718;BME280;24468;52.128;9.278;2023-05-22T07:57:43;100471.56;;;23.50;100.00
38718;BME280;24468;52.128;9.278;2023-05-22T08:00:09;100469.09;;;23.47;100.00
38718;BME280;24468;52.128;9.278;2023-05-22T08:02:37;100465.75;;;23.53;100.00
38718;BME280;24468;52.128;9.278;2023-05-22T08:05:02;100475.28;;;23.59;100.00
38718;BME280;24468;52.128;9.278;2023-05-22T08:07:28;100473.75;;;23.74;100.00
38718;BME280;24468;52.128;9.278;2023-05-22T08:09:54;100476.63;;;24.00;100.00
38718;BME280;24468;52.128;9.278;2023-05-22T08:12:20;100473.56;;;24.03;100.00
38718;BME280;24468;52.128;9.278;2023-05-22T08:14:45;100476.00;;;24.06;100.00
38718;BME280;24468;52.128;9.278;2023-05-22T08:17:11;100463.47;;;23.94;100.00
38718;BME280;24468;52.128;9.278;2023-05-22T08:19:36;100475.69;;;24.27;100.00
38718;BME280;24468;52.128;9.278;2023-05-22T08:22:02;100479.63;;;24.25;100.00
38718;BME280;24468;52.128;9.278;2023-05-22T08:24:27;100474.66;;;24.46;100.00
38718;BME280;24468;52.128;9.278;2023-05-22T08:26:56;100465.00;;;24.68;100.00
38718;BME280;24468;52.128;9.278;2023-05-22T08:29:23;100473.94;;;24.26;100.00
38718;BME280;24468;52.128;9.278;2023-05-22T08:31:49;100473.66;;;24.47;100.00
38718;BME280;24468;52.128;9.278;2023-05-22T08:34:14;100472.16;;;24.17;100.00
38718;BME280;24468;52.128;9.278;2023-05-22T08:36:40;100467.41;;;24.09;100.00
38718;BME280;24468;52.128;9.278;2023-05-22T08:39:06;100466.00;;;24.23;100.00
38718;BME280;24468;52.128;9.278;2023-05-22T08:41:33;100458.75;;;24.84;100.00
38718;BME280;24468;52.128;9.278;2023-05-22T08:43:58;100462.34;;;24.84;100.00
38718;BME280;24468;52.128;9.278;2023-05-22T08:46:24;100458.13;;;24.46;100.00
38718;BME280;24468;52.128;9.278;2023-05-22T08:48:57;100465.06;;;24.76;100.00
38718;BME280;24468;52.128;9.278;2023-05-22T08:51:28;100460.69;;;24.66;100.00
38718;BME280;24468;52.128;9.278;2023-05-22T08:53:56;100466.16;;;25.10;100.00
38718;BME280;24468;52.128;9.278;2023-05-22T08:56:21;100455.97;;;25.10;100.00
38718;BME280;24468;52.128;9.278;2023-05-22T08:58:49;100451.88;;;24.62;100.00
38718;BME280;24468;52.128;9.278;2023-05-22T09:01:15;100448.47;;;25.20;100.00
38718;BME280;24468;52.128;9.278;2023-05-22T09:03:41;100443.53;;;25.40;100.00
38718;BME280;24468;52.128;9.278;2023-05-22T09:06:07;100440.31;;;24.93;100.00
38718;BME280;24468;52.128;9.278;2023-05-22T09:08:34;100441.41;;;25.26;100.00
38718;BME280;24468;52.128;9.278;2023-05-22T09:11:00;100440.91;;;25.81;100.00
38718;BME280;24468;52.128;9.278;2023-05-22T09:13:28;100436.25;;;25.82;98.13
38718;BME280;24468;52.128;9.278;2023-05-22T09:15:59;100435.47;;;25.55;98.46
38718;BME280;24468;52.128;9.278;2023-05-22T09:18:28;100437.00;;;26.00;96.49
38718;BME280;24468;52.128;9.278;2023-05-22T09:20:57;100439.75;;;26.00;94.22
38718;BME280;24468;52.128;9.278;2023-05-22T09:23:26;100439.56;;;25.35;98.31
38718;BME280;24468;52.128;9.278;2023-05-22T09:25:57;100433.91;;;26.20;95.21
38718;BME280;24468;52.128;9.278;2023-05-22T09:28:23;100433.00;;;26.68;91.81
38718;BME280;24468;52.128;9.278;2023-05-22T09:30:50;100429.50;;;26.99;88.79
38718;BME280;24468;52.128;9.278;2023-05-22T09:33:17;100432.56;;;27.12;87.67
38718;BME280;24468;52.128;9.278;2023-05-22T09:35:45;100430.69;;;27.21;87.75
38718;BME280;24468;52.128;9.278;2023-05-22T09:38:12;100432.16;;;26.43;91.14
38718;BME280;24468;52.128;9.278;2023-05-22T09:40:38;100424.00;;;26.91;88.88
38718;BME280;24468;52.128;9.278;2023-05-22T09:43:08;100426.47;;;26.53;88.81
38718;BME280;24468;52.128;9.278;2023-05-22T09:45:35;100430.16;;;27.01;87.18
38718;BME280;24468;52.128;9.278;2023-05-22T09:48:05;100427.19;;;26.55;89.53
38718;BME280;24468;52.128;9.278;2023-05-22T09:50:32;100424.38;;;26.79;86.89
38718;BME280;24468;52.128;9.278;2023-05-22T09:53:03;100420.53;;;26.89;85.93
38718;BME280;24468;52.128;9.278;2023-05-22T09:55:29;100429.94;;;26.22;88.28
38718;BME280;24468;52.128;9.278;2023-05-22T09:57:56;100430.09;;;26.45;89.57
38718;BME280;24468;52.128;9.278;2023-05-22T10:00:24;100421.16;;;27.15;85.22
38718;BME280;24468;52.128;9.278;2023-05-22T10:03:07;100420.97;;;27.09;82.03
38718;BME280;24468;52.128;9.278;2023-05-22T10:05:34;100419.31;;;27.78;82.51
38718;BME280;24468;52.128;9.278;2023-05-22T10:08:09;100422.22;;;28.08;79.95
38718;BME280;24468;52.128;9.278;2023-05-22T10:10:35;100409.09;;;28.02;80.14
38718;BME280;24468;52.128;9.278;2023-05-22T10:13:03;100414.59;;;28.10;79.23
38718;BME280;24468;52.128;9.278;2023-05-22T10:15:30;100404.41;;;28.48;75.42
38718;BME280;24468;52.128;9.278;2023-05-22T10:17:57;100408.00;;;27.88;74.75
38718;BME280;24468;52.128;9.278;2023-05-22T10:20:25;100407.25;;;27.63;74.23
38718;BME280;24468;52.128;9.278;2023-05-22T10:22:52;100405.97;;;28.28;69.84
38718;BME280;24468;52.128;9.278;2023-05-22T10:25:18;100407.31;;;28.09;72.68
38718;BME280;24468;52.128;9.278;2023-05-22T10:27:47;100405.28;;;27.80;70.92
38718;BME280;24468;52.128;9.278;2023-05-22T10:30:23;100407.56;;;28.22;70.79
38718;BME280;24468;52.128;9.278;2023-05-22T10:41:04;100386.47;;;29.03;60.90
38718;BME280;24468;52.128;9.278;2023-05-22T10:43:31;100391.72;;;28.84;60.08
38718;BME280;24468;52.128;9.278;2023-05-22T10:46:05;100385.00;;;28.93;61.98
38718;BME280;24468;52.128;9.278;2023-05-22T10:48:39;100387.59;;;29.39;61.04
38718;BME280;24468;52.128;9.278;2023-05-22T10:51:08;100390.78;;;29.06;62.34
38718;BME280;24468;52.128;9.278;2023-05-22T10:53:34;100389.91;;;29.35;60.32
38718;BME280;24468;52.128;9.278;2023-05-22T10:56:12;100387.50;;;29.32;54.97
38718;BME280;24468;52.128;9.278;2023-05-22T10:58:38;100377.84;;;29.64;56.13
38718;BME280;24468;52.128;9.278;2023-05-22T11:01:16;100385.88;;;29.38;58.06
38718;BME280;24468;52.128;9.278;2023-05-22T11:06:48;100382.81;;;29.18;57.09
38718;BME280;24468;52.128;9.278;2023-05-22T11:09:33;100380.97;;;29.40;59.89
38718;BME280;24468;52.128;9.278;2023-05-22T11:15:05;100379.84;;;29.92;54.96
38718;BME280;24468;52.128;9.278;2023-05-22T11:17:42;100371.06;;;29.88;54.64
38718;BME280;24468;52.128;9.278;2023-05-22T11:20:21;100378.97;;;29.34;56.00
38718;BME280;24468;52.128;9.278;2023-05-22T11:23:00;100369.81;;;29.55;55.85
38718;BME280;24468;52.128;9.278;2023-05-22T11:25:27;100370.16;;;29.15;56.81
38718;BME280;24468;52.128;9.278;2023-05-22T11:27:53;100367.28;;;29.96;55.71
38718;BME280;24468;52.128;9.278;2023-05-22T11:30:23;100361.91;;;28.63;58.37
38718;BME280;24468;52.128;9.278;2023-05-22T11:32:49;100367.00;;;29.33;58.29
38718;BME280;24468;52.128;9.278;2023-05-22T11:35:16;100359.28;;;29.50;58.08
38718;BME280;24468;52.128;9.278;2023-05-22T11:37:42;100356.69;;;29.85;57.52
38718;BME280;24468;52.128;9.278;2023-05-22T11:40:09;100360.03;;;29.95;54.32
38718;BME280;24468;52.128;9.278;2023-05-22T11:42:35;100360.81;;;29.67;55.29
38718;BME280;24468;52.128;9.278;2023-05-22T11:45:03;100350.88;;;30.23;52.81
38718;BME280;24468;52.128;9.278;2023-05-22T11:47:29;100344.50;;;30.07;55.62
38718;BME280;24468;52.128;9.278;2023-05-22T11:49:58;100349.41;;;30.05;52.32
38718;BME280;24468;52.128;9.278;2023-05-22T11:52:24;100337.28;;;30.34;51.75
38718;BME280;24468;52.128;9.278;2023-05-22T11:54:53;100344.00;;;29.76;53.99
38718;BME280;24468;52.128;9.278;2023-05-22T11:57:19;100337.91;;;29.65;53.16
38718;BME280;24468;52.128;9.278;2023-05-22T11:59:46;100337.41;;;30.05;52.56
38718;BME280;24468;52.128;9.278;2023-05-22T12:02:12;100325.59;;;29.38;54.46
38718;BME280;24468;52.128;9.278;2023-05-22T12:04:38;100332.06;;;29.82;54.23
38718;BME280;24468;52.128;9.278;2023-05-22T12:07:04;100325.19;;;29.05;56.33
38718;BME280;24468;52.128;9.278;2023-05-22T12:09:30;100326.56;;;29.31;57.02
38718;BME280;24468;52.128;9.278;2023-05-22T12:11:56;100315.22;;;30.11;54.49
38718;BME280;24468;52.128;9.278;2023-05-22T12:14:30;100317.59;;;30.36;56.50
38718;BME280;24468;52.128;9.278;2023-05-22T12:17:00;100321.66;;;29.90;53.58
38718;BME280;24468;52.128;9.278;2023-05-22T12:19:26;100317.09;;;30.04;53.38
38718;BME280;24468;52.128;9.278;2023-05-22T12:21:52;100313.09;;;30.70;52.53
38718;BME280;24468;52.128;9.278;2023-05-22T12:24:18;100308.28;;;30.01;52.10
38718;BME280;24468;52.128;9.278;2023-05-22T12:26:51;100306.25;;;30.16;53.19
38718;BME280;24468;52.128;9.278;2023-05-22T12:29:20;100310.03;;;30.30;53.11
38718;BME280;24468;52.128;9.278;2023-05-22T12:31:46;100296.09;;;30.23;54.37
38718;BME280;24468;52.128;9.278;2023-05-22T12:34:12;100306.88;;;29.11;56.95
38718;BME280;24468;52.128;9.278;2023-05-22T12:36:40;100293.00;;;29.90;54.89
38718;BME280;24468;52.128;9.278;2023-05-22T12:39:12;100303.22;;;30.32;52.24
38718;BME280;24468;52.128;9.278;2023-05-22T12:41:40;100300.78;;;30.23;53.84
38718;BME280;24468;52.128;9.278;2023-05-22T12:44:05;100300.66;;;30.31;53.36
38718;BME280;24468;52.128;9.278;2023-05-22T12:46:32;100299.16;;;30.35;52.47
38718;BME280;24468;52.128;9.278;2023-05-22T12:49:00;100296.16;;;30.65;50.42
38718;BME280;24468;52.128;9.278;2023-05-22T12:51:28;100290.69;;;30.85;45.72
38718;BME280;24468;52.128;9.278;2023-05-22T12:53:57;100288.03;;;30.13;47.01
38718;BME280;24468;52.128;9.278;2023-05-22T12:56:23;100285.16;;;30.50;47.98
38718;BME280;24468;52.128;9.278;2023-05-22T12:58:49;100289.59;;;30.44;47.28
38718;BME280;24468;52.128;9.278;2023-05-22T13:01:15;100289.25;;;30.61;47.63
38718;BME280;24468;52.128;9.278;2023-05-22T13:03:40;100288.53;;;30.17;46.20
38718;BME280;24468;52.128;9.278;2023-05-22T13:06:06;100279.34;;;30.51;46.88
38718;BME280;24468;52.128;9.278;2023-05-22T13:08:32;100283.06;;;30.58;47.63
38718;BME280;24468;52.128;9.278;2023-05-22T13:10:57;100285.09;;;30.78;46.07
38718;BME280;24468;52.128;9.278;2023-05-22T13:13:23;100289.56;;;30.79;47.54